Time;durP1;ratioP1;P1;durP2;ratioP2;P2;SDS_P1;SDS_P2;PMS_P1;PMS_P2;Temp;Humidity;BMP_temperature;BMP_pressure;BME280_temperature;BME280_humidity;BME280_pressure;Samples;Min_cycle;Max_cycle;Signal;HPM_P1;HPM_P2
2022/04/28 00:01:53;;;;;;;25.90;24.40;;;9.90;58.50;;;;;;4994803;28;20536;-86
2022/04/28 00:04:18;;;;;;;24.70;23.13;;;9.80;58.50;;;;;;4977227;28;20464;-84
2022/04/28 00:06:44;;;;;;;24.13;22.67;;;9.90;57.80;;;;;;4977195;28;20625;-85
2022/04/28 00:09:10;;;;;;;24.70;23.20;;;9.90;57.50;;;;;;4978580;28;20229;-83
2022/04/28 00:11:36;;;;;;;23.33;21.97;;;9.80;58.50;;;;;;5001180;28;20260;-83
2022/04/28 00:14:02;;;;;;;23.30;22.00;;;9.80;58.70;;;;;;5000836;28;20413;-83
2022/04/28 00:16:28;;;;;;;25.23;23.73;;;9.70;59.10;;;;;;4994085;28;20252;-85
2022/04/28 00:18:54;;;;;;;24.03;22.57;;;9.70;59.00;;;;;;4988409;28;20519;-85
2022/04/28 00:21:20;;;;;;;24.40;23.00;;;9.60;59.30;;;;;;5013252;28;20781;-84
2022/04/28 00:23:46;;;;;;;25.17;23.70;;;9.70;59.60;;;;;;5008841;28;20422;-85
2022/04/28 00:26:12;;;;;;;24.30;23.00;;;9.60;60.20;;;;;;5000542;28;20836;-85
2022/04/28 00:28:38;;;;;;;23.60;22.30;;;9.60;59.80;;;;;;4987046;28;20409;-85
2022/04/28 00:31:03;;;;;;;22.67;21.43;;;9.50;60.40;;;;;;4981274;28;20954;-86
2022/04/28 00:33:29;;;;;;;23.17;21.80;;;9.50;61.40;;;;;;5009539;28;20174;-86
2022/04/28 00:35:55;;;;;;;24.87;23.43;;;9.60;61.10;;;;;;5011754;28;20177;-86
2022/04/28 00:38:21;;;;;;;24.43;22.90;;;9.60;59.90;;;;;;5013848;28;20177;-81
2022/04/28 00:40:47;;;;;;;24.60;22.90;;;9.60;60.10;;;;;;4995694;28;20541;-81
2022/04/28 00:43:19;;;;;;;23.67;22.40;;;9.60;59.50;;;;;;5012205;28;20177;-81
2022/04/28 00:45:48;;;;;;;26.90;25.20;;;9.60;59.20;;;;;;5010257;28;20443;-81
2022/04/28 00:51:01;;;;;;;28.93;27.23;;;9.60;59.10;;;;;;5013232;28;20415;-80
2022/04/28 00:53:32;;;;;;;28.43;26.70;;;9.60;59.90;;;;;;5012009;28;20643;-83
2022/04/28 00:55:58;;;;;;;23.37;21.97;;;9.50;59.90;;;;;;5011591;28;20482;-80
2022/04/28 00:58:24;;;;;;;28.33;26.73;;;9.50;59.80;;;;;;5011891;28;20419;-81
2022/04/28 01:00:52;;;;;;;23.77;22.37;;;9.50;59.80;;;;;;5011775;28;20793;-81
2022/04/28 01:03:17;;;;;;;27.33;25.63;;;9.50;60.00;;;;;;5011494;28;20419;-81
2022/04/28 01:05:43;;;;;;;23.13;21.73;;;9.50;60.00;;;;;;5010096;28;20464;-81
2022/04/28 01:08:09;;;;;;;23.57;22.07;;;9.50;59.80;;;;;;5011268;28;20265;-80
2022/04/28 01:10:35;;;;;;;22.00;20.70;;;9.60;59.40;;;;;;5010678;28;20184;-81
2022/04/28 01:13:01;;;;;;;22.77;21.37;;;9.60;59.10;;;;;;5010909;28;20962;-81
2022/04/28 01:15:26;;;;;;;22.90;21.50;;;9.50;59.30;;;;;;5010852;28;20416;-80
2022/04/28 01:17:52;;;;;;;22.60;21.30;;;9.40;59.60;;;;;;5011167;28;20672;-80
2022/04/28 01:20:18;;;;;;;22.50;21.20;;;9.40;59.90;;;;;;5012228;28;20177;-81
2022/04/28 01:22:44;;;;;;;22.67;21.13;;;9.40;59.70;;;;;;5012235;28;20499;-80
2022/04/28 01:25:11;;;;;;;22.13;20.73;;;9.30;60.60;;;;;;5012087;28;20201;-80
2022/04/28 01:27:39;;;;;;;25.00;23.60;;;9.30;60.30;;;;;;5011052;28;20177;-80
2022/04/28 01:30:15;;;;;;;23.70;22.20;;;9.30;60.00;;;;;;5011885;28;20943;-80
2022/04/28 01:32:41;;;;;;;21.40;20.20;;;9.30;60.00;;;;;;5011378;28;20443;-80
2022/04/28 01:35:07;;;;;;;23.33;21.70;;;9.20;61.30;;;;;;5011318;28;20535;-80
2022/04/28 01:37:33;;;;;;;21.50;20.20;;;9.10;61.30;;;;;;5010696;28;20778;-81
2022/04/28 01:39:59;;;;;;;22.57;21.17;;;9.10;61.60;;;;;;5010916;28;20834;-81
2022/04/28 01:42:25;;;;;;;23.33;21.70;;;9.10;61.20;;;;;;5010745;28;20448;-81
2022/04/28 01:44:51;;;;;;;23.90;22.23;;;9.10;61.20;;;;;;5010523;28;20451;-81
2022/04/28 01:47:18;;;;;;;21.27;19.97;;;9.10;61.20;;;;;;4994464;28;20553;-80
2022/04/28 01:49:44;;;;;;;22.27;20.97;;;9.10;61.20;;;;;;5010813;28;20785;-80
2022/04/28 01:54:57;;;;;;;21.40;20.07;;;9.00;62.00;;;;;;5012579;28;20408;-81
2022/04/28 01:57:28;;;;;;;21.70;20.50;;;9.00;61.10;;;;;;5012074;28;20409;-80
2022/04/28 01:59:54;;;;;;;23.30;21.80;;;8.90;62.20;;;;;;5011324;28;20180;-80
2022/04/28 02:02:21;;;;;;;22.97;21.47;;;8.90;62.30;;;;;;5010933;28;20503;-81
2022/04/28 02:04:46;;;;;;;22.77;21.27;;;8.90;61.90;;;;;;5010974;28;20416;-81
2022/04/28 02:07:13;;;;;;;22.40;20.90;;;9.00;62.00;;;;;;5010665;28;20772;-81
2022/04/28 02:09:43;;;;;;;22.47;21.03;;;8.90;62.50;;;;;;5010736;28;20174;-81
2022/04/28 02:12:10;;;;;;;20.77;19.57;;;8.90;61.90;;;;;;5010564;28;20416;-81
2022/04/28 02:14:37;;;;;;;22.03;20.70;;;8.90;62.50;;;;;;5011098;28;20419;-80
2022/04/28 02:17:06;;;;;;;22.13;20.83;;;8.90;62.30;;;;;;5010428;28;21114;-80
2022/04/28 02:19:32;;;;;;;23.10;21.63;;;8.90;61.90;;;;;;5011037;28;20424;-80
2022/04/28 02:21:58;;;;;;;23.07;21.67;;;8.80;62.00;;;;;;5010890;28;20905;-80
2022/04/28 02:24:24;;;;;;;21.77;20.17;;;8.80;62.50;;;;;;5011647;28;20479;-81
2022/04/28 02:26:50;;;;;;;23.10;21.70;;;8.80;62.70;;;;;;5011570;28;20832;-81
2022/04/28 02:29:16;;;;;;;26.53;24.93;;;8.80;62.80;;;;;;5011573;28;20200;-81
2022/04/28 02:31:41;;;;;;;23.13;21.60;;;8.70;63.40;;;;;;5010850;28;20268;-81
2022/04/28 02:34:07;;;;;;;23.23;21.83;;;8.70;63.60;;;;;;5010567;28;20459;-81
2022/04/28 02:36:33;;;;;;;24.27;22.30;;;8.70;63.30;;;;;;5010367;28;20630;-80
2022/04/28 02:38:59;;;;;;;22.20;20.90;;;8.70;63.80;;;;;;5010162;28;20539;-80
2022/04/28 02:41:24;;;;;;;22.37;20.97;;;8.70;63.90;;;;;;5010348;28;20181;-80
2022/04/28 02:43:51;;;;;;;22.77;21.37;;;8.70;64.60;;;;;;5009756;28;20925;-79
2022/04/28 02:46:18;;;;;;;23.07;21.77;;;8.60;65.20;;;;;;5009927;28;20212;-80
2022/04/28 02:48:43;;;;;;;22.67;21.20;;;8.60;64.90;;;;;;5010161;28;20439;-81
2022/04/28 02:51:09;;;;;;;22.53;21.00;;;8.60;63.90;;;;;;5010310;28;20413;-80
2022/04/28 02:53:35;;;;;;;24.07;22.57;;;8.60;64.20;;;;;;5011596;28;20760;-81
2022/04/28 02:56:01;;;;;;;22.53;21.17;;;8.60;64.40;;;;;;5011186;28;20177;-81
2022/04/28 02:58:27;;;;;;;22.13;20.73;;;8.50;64.10;;;;;;5011453;28;20424;-86
2022/04/28 03:00:53;;;;;;;28.00;25.90;;;8.50;64.40;;;;;;5011377;28;20181;-86
2022/04/28 03:03:18;;;;;;;22.67;21.20;;;8.50;63.90;;;;;;5010454;28;20435;-86
2022/04/28 03:11:12;;;;;;;24.83;23.23;;;8.40;65.70;;;;;;5011167;28;20435;-85
2022/04/28 03:13:39;;;;;;;26.20;24.57;;;8.50;63.90;;;;;;5009298;28;20949;-86
2022/04/28 03:16:05;;;;;;;25.47;23.97;;;8.50;64.20;;;;;;5009277;28;20177;-85
2022/04/28 03:18:31;;;;;;;24.33;22.77;;;8.40;65.20;;;;;;5009073;28;20420;-85
2022/04/28 03:20:57;;;;;;;24.37;22.80;;;8.40;65.20;;;;;;4981560;28;20422;-86
2022/04/28 03:23:23;;;;;;;24.80;23.40;;;8.30;64.70;;;;;;4984278;28;20945;-85
2022/04/28 03:25:51;;;;;;;23.90;22.00;;;8.20;65.40;;;;;;5001028;28;20201;-85
2022/04/28 03:28:21;;;;;;;23.23;21.83;;;8.20;64.60;;;;;;4999225;28;20413;-85
2022/04/28 03:30:48;;;;;;;22.00;20.70;;;8.20;65.00;;;;;;4981695;28;20907;-84
2022/04/28 03:33:15;;;;;;;24.50;23.10;;;8.20;65.50;;;;;;4974181;28;20445;-86
2022/04/28 03:35:41;;;;;;;25.67;24.07;;;8.20;65.50;;;;;;4974573;28;20928;-85
2022/04/28 03:38:12;;;;;;;24.20;22.90;;;8.20;65.50;;;;;;4974263;28;20425;-86
2022/04/28 03:40:43;;;;;;;24.10;22.70;;;8.20;66.10;;;;;;4974317;28;20429;-86
2022/04/28 03:43:09;;;;;;;23.57;22.30;;;8.30;65.70;;;;;;4974602;28;20480;-85
2022/04/28 03:45:36;;;;;;;24.20;22.77;;;8.30;65.60;;;;;;4973765;28;20519;-85
2022/04/28 03:48:03;;;;;;;24.70;23.30;;;8.40;65.50;;;;;;4974835;28;20460;-85
2022/04/28 03:50:30;;;;;;;24.77;23.27;;;8.30;64.80;;;;;;4974704;28;20515;-86
2022/04/28 03:52:57;;;;;;;23.13;21.83;;;8.30;65.40;;;;;;4975123;28;20983;-86
2022/04/28 03:55:24;;;;;;;25.10;23.40;;;8.40;65.20;;;;;;4976912;28;20833;-86
2022/04/28 03:57:49;;;;;;;26.70;25.00;;;8.40;64.40;;;;;;5010824;28;20489;-86
2022/04/28 04:00:15;;;;;;;24.87;23.30;;;8.50;63.20;;;;;;5010766;28;20454;-86
2022/04/28 04:02:41;;;;;;;25.57;24.07;;;8.50;63.00;;;;;;5011901;28;20531;-86
2022/04/28 04:05:07;;;;;;;25.80;24.20;;;8.40;62.90;;;;;;5011066;28;20487;-86
2022/04/28 04:07:34;;;;;;;25.07;23.57;;;8.40;63.20;;;;;;5010993;28;20246;-86
2022/04/28 04:10:00;;;;;;;26.43;24.60;;;8.40;63.20;;;;;;5010960;28;20447;-86
2022/04/28 04:12:26;;;;;;;25.67;24.07;;;8.30;63.40;;;;;;5010828;28;20444;-86
2022/04/28 04:14:54;;;;;;;25.60;24.20;;;8.30;64.00;;;;;;5012041;28;20408;-86
2022/04/28 04:17:21;;;;;;;24.60;23.03;;;8.30;63.50;;;;;;5010395;28;20428;-86
2022/04/28 04:19:46;;;;;;;25.90;24.40;;;8.40;62.80;;;;;;5010864;28;20419;-86
2022/04/28 04:22:12;;;;;;;25.57;23.90;;;8.40;63.20;;;;;;5010733;28;20462;-86
2022/04/28 04:24:40;;;;;;;23.93;22.43;;;8.20;63.60;;;;;;5010467;28;20307;-86
2022/04/28 04:27:06;;;;;;;23.87;22.47;;;8.20;63.90;;;;;;5010496;28;20459;-86
2022/04/28 04:29:31;;;;;;;25.43;23.87;;;8.20;64.80;;;;;;5010814;28;20430;-86
2022/04/28 04:34:41;;;;;;;26.90;25.10;;;8.10;64.80;;;;;;5012205;28;20201;-86
2022/04/28 04:37:07;;;;;;;26.50;24.80;;;8.10;65.30;;;;;;5010317;28;20427;-86
2022/04/28 04:39:33;;;;;;;25.30;23.90;;;8.00;65.30;;;;;;5012568;28;20219;-86
2022/04/28 04:41:58;;;;;;;25.23;23.60;;;8.10;65.40;;;;;;5010816;28;20182;-85
2022/04/28 04:44:24;;;;;;;26.63;25.03;;;8.10;64.40;;;;;;5002092;28;20223;-85
2022/04/28 04:46:50;;;;;;;23.63;22.33;;;8.10;66.00;;;;;;4989648;28;20213;-86
2022/04/28 04:49:17;;;;;;;24.00;22.50;;;8.00;65.60;;;;;;5005938;28;20420;-83
2022/04/28 04:51:43;;;;;;;23.67;22.37;;;8.00;64.90;;;;;;4988577;28;20197;-83
2022/04/28 04:54:09;;;;;;;25.50;23.70;;;8.10;65.20;;;;;;4984732;28;20431;-85
2022/04/28 04:56:36;;;;;;;24.10;22.60;;;8.10;64.60;;;;;;5006105;28;20428;-84
2022/04/28 04:59:02;;;;;;;26.33;24.67;;;8.10;64.00;;;;;;5014285;28;20612;-86
2022/04/28 05:01:28;;;;;;;24.50;23.20;;;8.10;63.90;;;;;;5013935;28;20518;-86
2022/04/28 05:03:54;;;;;;;24.80;23.30;;;8.10;64.20;;;;;;5013758;28;20455;-85
2022/04/28 05:06:25;;;;;;;24.53;23.13;;;8.10;64.00;;;;;;5013784;28;20487;-85
2022/04/28 05:08:50;;;;;;;25.07;23.67;;;8.20;64.30;;;;;;5015035;28;20196;-84
2022/04/28 05:11:17;;;;;;;24.57;23.27;;;8.00;63.30;;;;;;5014391;28;20440;-85
2022/04/28 05:13:43;;;;;;;26.77;25.00;;;8.20;63.70;;;;;;5014065;28;20176;-85
2022/04/28 05:16:09;;;;;;;25.47;23.97;;;8.10;62.50;;;;;;5014162;28;20435;-85
2022/04/28 05:18:34;;;;;;;23.00;21.70;;;8.20;63.00;;;;;;5013811;28;20423;-84
2022/04/28 05:21:00;;;;;;;24.57;22.87;;;8.30;63.20;;;;;;5014120;28;20917;-85
2022/04/28 05:23:26;;;;;;;26.47;24.93;;;8.30;63.40;;;;;;5014173;28;20670;-83
2022/04/28 05:25:52;;;;;;;26.27;24.77;;;8.40;63.00;;;;;;5013899;28;20569;-84
2022/04/28 05:28:17;;;;;;;27.03;25.27;;;8.40;63.10;;;;;;5013942;28;20169;-85
2022/04/28 05:30:43;;;;;;;27.20;25.43;;;8.40;62.80;;;;;;5013622;28;20420;-82
2022/04/28 05:33:09;;;;;;;26.57;25.13;;;8.40;62.30;;;;;;5014042;28;20264;-85
2022/04/28 05:35:38;;;;;;;27.37;25.63;;;8.30;62.30;;;;;;5013881;28;20177;-84
2022/04/28 05:38:04;;;;;;;25.53;24.13;;;8.50;63.20;;;;;;5013710;28;20424;-85
2022/04/28 05:40:30;;;;;;;28.10;26.30;;;8.60;63.70;;;;;;5013265;28;20470;-84
2022/04/28 05:45:43;;;;;;;27.40;25.60;;;8.70;61.40;;;;;;5005436;28;20503;-86
2022/04/28 05:48:13;;;;;;;28.73;27.00;;;8.70;60.80;;;;;;5014587;28;20404;-85
2022/04/28 05:50:39;;;;;;;28.40;26.90;;;8.80;61.20;;;;;;4996261;28;20479;-85
2022/04/28 05:53:05;;;;;;;25.23;23.73;;;8.80;62.40;;;;;;4993667;28;21229;-86
2022/04/28 05:55:31;;;;;;;28.57;26.57;;;8.90;62.30;;;;;;5001228;28;20428;-85
2022/04/28 05:57:59;;;;;;;24.23;22.80;;;8.90;62.60;;;;;;4977762;28;20191;-85
2022/04/28 06:00:25;;;;;;;30.57;28.83;;;8.90;62.70;;;;;;4977713;28;20184;-85
2022/04/28 06:02:52;;;;;;;22.43;20.73;;;9.00;62.20;;;;;;4995285;28;20809;-87
2022/04/28 06:05:18;;;;;;;28.97;27.27;;;9.10;61.20;;;;;;4977506;28;20457;-86
2022/04/28 06:07:43;;;;;;;24.80;23.20;;;9.10;61.20;;;;;;4977448;28;20432;-84
2022/04/28 06:10:09;;;;;;;29.93;28.10;;;9.20;61.00;;;;;;4978110;28;20173;-84
2022/04/28 06:12:35;;;;;;;23.80;22.30;;;9.20;60.30;;;;;;4977628;28;20174;-84
2022/04/28 06:15:02;;;;;;;25.27;23.70;;;9.30;60.90;;;;;;4977314;28;20471;-84
2022/04/28 06:17:27;;;;;;;24.80;22.90;;;9.40;60.70;;;;;;4977403;28;20182;-84
2022/04/28 06:19:53;;;;;;;23.87;22.47;;;9.40;60.00;;;;;;4977266;28;20433;-85
2022/04/28 06:22:18;;;;;;;25.60;23.77;;;9.50;60.20;;;;;;4977513;28;20672;-83
2022/04/28 06:24:44;;;;;;;26.10;24.40;;;9.60;60.00;;;;;;4976781;28;20218;-83
2022/04/28 06:27:10;;;;;;;28.67;26.23;;;9.60;60.50;;;;;;4975849;28;20976;-84
2022/04/28 06:29:36;;;;;;;28.07;26.17;;;9.70;58.80;;;;;;4992563;28;20654;-83
2022/04/28 06:32:02;;;;;;;27.33;25.33;;;9.80;57.90;;;;;;4980515;28;20185;-84
2022/04/28 06:34:27;;;;;;;26.93;25.23;;;9.80;59.20;;;;;;5003439;28;20589;-84
2022/04/28 06:36:53;;;;;;;26.17;24.47;;;9.80;57.90;;;;;;4998766;28;20425;-84
2022/04/28 06:39:19;;;;;;;25.10;23.60;;;9.90;57.70;;;;;;4991715;28;20595;-84
2022/04/28 06:41:44;;;;;;;26.23;24.60;;;10.00;57.20;;;;;;5003426;28;20270;-84
2022/04/28 06:44:10;;;;;;;26.73;24.73;;;10.10;56.30;;;;;;5002641;28;20263;-84
2022/04/28 06:46:35;;;;;;;25.30;23.70;;;10.20;57.60;;;;;;4985293;28;20253;-84
2022/04/28 06:49:01;;;;;;;26.50;24.63;;;10.30;57.60;;;;;;5001055;28;20181;-84
2022/04/28 06:51:27;;;;;;;31.60;29.80;;;10.30;57.40;;;;;;5000011;28;20177;-84
2022/04/28 06:53:52;;;;;;;28.10;26.20;;;10.40;56.80;;;;;;4984741;28;20174;-84
2022/04/28 06:56:18;;;;;;;28.60;26.80;;;10.50;54.10;;;;;;5002769;28;20185;-84
2022/04/28 06:58:44;;;;;;;28.20;26.43;;;10.50;54.80;;;;;;4983650;28;20269;-84
2022/04/28 07:01:09;;;;;;;28.17;26.17;;;10.60;56.10;;;;;;4994823;28;20181;-84
2022/04/28 07:03:35;;;;;;;27.20;25.50;;;10.60;55.80;;;;;;5003110;28;20182;-84
2022/04/28 07:06:01;;;;;;;27.87;25.97;;;10.70;55.50;;;;;;4982197;28;20334;-85
2022/04/28 07:08:26;;;;;;;27.37;25.60;;;10.80;55.20;;;;;;4999808;28;20296;-83
2022/04/28 07:10:52;;;;;;;26.97;25.43;;;10.90;54.70;;;;;;5007100;28;20181;-83
2022/04/28 07:13:18;;;;;;;27.07;25.33;;;11.00;53.70;;;;;;4986360;28;20178;-85
2022/04/28 07:15:44;;;;;;;24.70;23.30;;;11.00;50.10;;;;;;5001007;28;20308;-85
2022/04/28 07:18:11;;;;;;;25.73;24.30;;;11.10;49.50;;;;;;5002335;28;20170;-85
2022/04/28 07:20:37;;;;;;;27.40;25.70;;;11.20;51.80;;;;;;4987047;28;20439;-85
2022/04/28 07:23:03;;;;;;;26.80;25.30;;;11.20;48.50;;;;;;4978582;28;20429;-85
2022/04/28 07:25:30;;;;;;;29.30;27.77;;;11.30;49.70;;;;;;4976506;28;21080;-83
2022/04/28 07:27:57;;;;;;;28.13;26.63;;;11.30;50.60;;;;;;4978027;28;20201;-84
2022/04/28 07:30:24;;;;;;;27.93;26.47;;;11.40;49.00;;;;;;4995762;28;20412;-84
2022/04/28 07:32:51;;;;;;;29.00;27.30;;;11.40;48.50;;;;;;4995852;28;20420;-83
2022/04/28 07:35:18;;;;;;;26.70;25.10;;;11.50;46.00;;;;;;4989493;28;20437;-81
2022/04/28 07:37:44;;;;;;;29.10;27.50;;;11.60;46.50;;;;;;5011352;28;20893;-87
2022/04/28 07:40:10;;;;;;;28.70;27.10;;;11.70;46.00;;;;;;5011853;28;20515;-83
2022/04/28 07:42:37;;;;;;;28.63;27.13;;;11.70;46.50;;;;;;5008661;28;20217;-81
2022/04/28 07:45:03;;;;;;;28.60;26.90;;;11.90;48.90;;;;;;5001151;28;20754;-81
2022/04/28 07:47:29;;;;;;;27.33;26.03;;;12.10;47.00;;;;;;5001072;28;20433;-84
2022/04/28 07:49:55;;;;;;;29.67;28.07;;;12.20;45.30;;;;;;4976274;28;20421;-83
2022/04/28 07:52:21;;;;;;;30.30;28.70;;;12.20;45.10;;;;;;4974958;28;20420;-83
2022/04/28 07:54:49;;;;;;;27.50;26.10;;;12.20;44.10;;;;;;4981035;28;20704;-84
2022/04/28 07:57:15;;;;;;;29.07;27.47;;;12.30;44.20;;;;;;4976214;28;20413;-84
2022/04/28 07:59:41;;;;;;;27.80;26.30;;;12.40;43.80;;;;;;4976025;28;21085;-83
2022/04/28 08:02:11;;;;;;;26.80;25.50;;;12.40;43.90;;;;;;5006428;28;20503;-84
2022/04/28 08:04:38;;;;;;;29.53;27.80;;;12.50;43.00;;;;;;5012338;28;20478;-84
2022/04/28 08:07:23;;;;;;;27.30;25.97;;;12.60;42.10;;;;;;5012294;28;20454;-77
2022/04/28 08:09:49;;;;;;;28.10;26.60;;;12.60;43.90;;;;;;5012335;28;20404;-78
2022/04/28 08:12:15;;;;;;;26.23;24.83;;;12.70;42.40;;;;;;5012057;28;20771;-83
2022/04/28 08:14:41;;;;;;;28.70;27.20;;;12.80;41.10;;;;;;5013906;28;20466;-78
2022/04/28 08:17:07;;;;;;;28.10;26.70;;;12.90;42.30;;;;;;5005567;28;20439;-84
2022/04/28 08:19:33;;;;;;;28.43;27.10;;;12.90;40.60;;;;;;4987539;28;20191;-83
2022/04/28 08:22:00;;;;;;;28.55;27.15;;;13.00;40.50;;;;;;4994391;28;20412;-84
2022/04/28 08:24:26;;;;;;;28.27;26.77;;;13.10;41.20;;;;;;4992821;28;20185;-85
2022/04/28 08:26:54;;;;;;;28.40;26.90;;;13.10;40.50;;;;;;5006274;28;20471;-85
2022/04/28 08:29:21;;;;;;;28.57;26.93;;;13.20;39.40;;;;;;5015164;28;20177;-85
2022/04/28 08:31:46;;;;;;;27.60;26.00;;;13.30;38.30;;;;;;4995867;28;20976;-83
2022/04/28 08:34:13;;;;;;;28.73;27.37;;;13.40;38.80;;;;;;4974993;28;20453;-85
2022/04/28 08:36:42;;;;;;;26.00;24.80;;;13.50;39.10;;;;;;4994327;28;20189;-85
2022/04/28 08:39:08;;;;;;;28.70;27.30;;;13.60;38.00;;;;;;5014206;28;20416;-85
2022/04/28 08:41:36;;;;;;;27.27;25.97;;;13.70;37.40;;;;;;5014249;28;20426;-84
2022/04/28 08:44:04;;;;;;;29.73;28.13;;;13.70;36.20;;;;;;5004506;28;20566;-84
2022/04/28 08:49:15;;;;;;;27.80;26.60;;;13.80;37.00;;;;;;5005755;28;20413;-79
2022/04/28 08:51:42;;;;;;;27.50;26.20;;;13.90;37.60;;;;;;5005140;28;20423;-80
2022/04/28 08:54:12;;;;;;;27.90;26.50;;;13.90;37.30;;;;;;4988185;28;20439;-79
2022/04/28 08:56:42;;;;;;;26.70;25.40;;;14.00;35.00;;;;;;5002431;28;20447;-78
2022/04/28 08:59:08;;;;;;;25.70;24.50;;;14.10;35.10;;;;;;5004297;28;20749;-78
2022/04/28 09:01:34;;;;;;;26.37;25.07;;;14.20;34.10;;;;;;4989394;28;20585;-78
2022/04/28 09:04:01;;;;;;;26.10;24.67;;;14.20;33.80;;;;;;4984030;28;20507;-79
2022/04/28 09:06:29;;;;;;;25.97;24.60;;;14.30;33.70;;;;;;4984024;28;20463;-79
2022/04/28 09:08:57;;;;;;;25.47;24.20;;;14.40;33.00;;;;;;5009082;28;20444;-78
2022/04/28 09:11:28;;;;;;;26.40;25.20;;;14.50;33.10;;;;;;4980109;28;20418;-79
2022/04/28 09:14:09;;;;;;;26.20;24.70;;;14.60;33.10;;;;;;4986876;28;20420;-80
2022/04/28 09:16:46;;;;;;;26.80;25.60;;;14.60;34.20;;;;;;4993194;28;20503;-80
2022/04/28 09:19:39;;;;;;;26.63;25.40;;;14.60;32.70;;;;;;4977645;28;20431;-80
2022/04/28 09:22:09;;;;;;;26.13;24.93;;;14.60;32.60;;;;;;4993752;28;20902;-78
2022/04/28 09:24:43;;;;;;;25.13;24.13;;;14.70;29.70;;;;;;4977533;28;20421;-78
2022/04/28 09:27:09;;;;;;;24.60;23.50;;;14.70;30.80;;;;;;4976294;28;20826;-78
2022/04/28 09:29:39;;;;;;;24.50;23.50;;;14.70;28.10;;;;;;4977534;28;20413;-78
2022/04/28 09:32:13;;;;;;;24.43;23.13;;;14.70;25.20;;;;;;4990808;28;20188;-78
2022/04/28 09:34:47;;;;;;;24.47;23.37;;;14.80;24.80;;;;;;5016299;23;20493;-79
2022/04/28 09:37:26;;;;;;;24.60;23.50;;;14.90;25.70;;;;;;4991576;28;20789;-78
2022/04/28 09:42:40;;;;;;;24.17;23.17;;;15.00;23.80;;;;;;4994013;28;20460;-78
2022/04/28 09:45:08;;;;;;;23.60;22.60;;;15.10;23.90;;;;;;4992336;28;20822;-78
2022/04/28 09:47:35;;;;;;;22.60;21.70;;;15.10;24.30;;;;;;4992553;28;20421;-78
2022/04/28 09:50:00;;;;;;;23.27;22.17;;;15.30;24.50;;;;;;4993677;28;21167;-79
2022/04/28 09:52:26;;;;;;;23.50;22.40;;;15.50;24.80;;;;;;4992515;28;20525;-78
2022/04/28 09:54:54;;;;;;;22.20;21.20;;;15.70;23.70;;;;;;4992425;28;20174;-78
2022/04/28 09:57:20;;;;;;;22.07;21.17;;;15.70;23.50;;;;;;4993051;28;20693;-78
2022/04/28 09:59:53;;;;;;;23.00;21.90;;;15.70;24.40;;;;;;4993146;28;20461;-80
2022/04/28 10:02:22;;;;;;;23.03;21.97;;;15.70;23.80;;;;;;4989787;28;20430;-79
2022/04/28 10:04:49;;;;;;;23.90;22.77;;;15.80;24.40;;;;;;5004807;28;20821;-78
2022/04/28 10:07:16;;;;;;;22.97;21.97;;;15.90;24.60;;;;;;4984858;28;21005;-78
2022/04/28 10:09:47;;;;;;;23.33;22.37;;;16.00;23.10;;;;;;4992032;28;20745;-78
2022/04/28 10:12:27;;;;;;;23.17;22.20;;;16.10;24.20;;;;;;4992912;28;20420;-79
2022/04/28 10:14:54;;;;;;;22.60;21.70;;;16.20;24.10;;;;;;4989430;28;20783;-79
2022/04/28 10:17:55;;;;;;;21.60;20.70;;;16.30;23.40;;;;;;4985151;28;20409;-79
2022/04/28 10:20:35;;;;;;;21.50;20.60;;;16.30;22.20;;;;;;4966234;28;20415;-78
2022/04/28 10:23:07;;;;;;;21.93;21.03;;;16.20;23.80;;;;;;4980471;28;20464;-79
2022/04/28 10:34:10;;;;;;;22.00;21.10;;;16.40;21.30;;;;;;4979767;28;20482;-79
2022/04/28 10:36:49;;;;;;;22.17;21.20;;;16.40;20.50;;;;;;4989167;28;20510;-79
2022/04/28 10:39:15;;;;;;;21.67;20.77;;;16.60;21.00;;;;;;4989328;28;20443;-79
2022/04/28 10:41:41;;;;;;;21.67;20.77;;;16.80;20.70;;;;;;4989989;28;20961;-79
2022/04/28 10:44:16;;;;;;;21.93;21.03;;;16.90;20.80;;;;;;5004055;28;20185;-79
2022/04/28 10:46:59;;;;;;;21.70;20.80;;;16.80;21.40;;;;;;4995535;28;20215;-79
2022/04/28 10:49:25;;;;;;;22.60;21.70;;;16.80;21.60;;;;;;4995835;28;20483;-79
2022/04/28 10:51:57;;;;;;;21.90;21.10;;;16.80;21.30;;;;;;4995444;28;20999;-79
2022/04/28 10:54:24;;;;;;;20.80;20.00;;;16.90;20.30;;;;;;4995520;28;20417;-79
2022/04/28 10:56:54;;;;;;;22.40;21.60;;;17.00;21.00;;;;;;4988893;28;20448;-79
2022/04/28 10:59:34;;;;;;;22.93;21.73;;;17.10;20.70;;;;;;4988191;28;20413;-79
2022/04/28 11:02:15;;;;;;;22.50;21.47;;;17.20;20.30;;;;;;4975904;28;20431;-80
2022/04/28 11:04:49;;;;;;;22.90;21.90;;;17.20;19.80;;;;;;4991854;28;20417;-80
2022/04/28 11:07:24;;;;;;;22.70;21.70;;;17.30;19.30;;;;;;4975590;28;20468;-79
2022/04/28 11:10:13;;;;;;;22.20;21.30;;;17.30;20.80;;;;;;4975722;28;20755;-79
2022/04/28 11:12:43;;;;;;;22.63;21.67;;;17.50;19.90;;;;;;4975739;28;20902;-79
2022/04/28 11:15:13;;;;;;;20.83;19.80;;;17.40;19.60;;;;;;4991025;28;20425;-83
2022/04/28 11:17:43;;;;;;;22.23;21.40;;;17.40;19.90;;;;;;4975847;28;20428;-83
2022/04/28 11:20:12;;;;;;;21.17;20.30;;;17.50;20.00;;;;;;4975976;28;20426;-82
2022/04/28 11:22:51;;;;;;;21.53;20.63;;;17.50;19.50;;;;;;4975999;28;20468;-81
2022/04/28 11:25:19;;;;;;;22.40;21.47;;;17.50;19.30;;;;;;4995628;28;20936;-81
2022/04/28 11:27:47;;;;;;;21.10;20.00;;;17.50;20.00;;;;;;4995646;28;20408;-83
2022/04/28 11:30:15;;;;;;;20.77;19.90;;;17.50;20.00;;;;;;4995613;28;20550;-82
2022/04/28 11:32:58;;;;;;;21.70;20.90;;;17.60;21.00;;;;;;4989379;28;20475;-81
2022/04/28 11:35:35;;;;;;;21.67;20.60;;;17.70;19.50;;;;;;4976047;28;20447;-83
2022/04/28 11:38:02;;;;;;;22.00;21.00;;;17.70;17.80;;;;;;4978212;28;20500;-83
2022/04/28 11:40:29;;;;;;;21.27;20.47;;;17.70;20.10;;;;;;5011869;28;20420;-83
2022/04/28 11:45:31;;;;;;;21.10;20.30;;;18.00;18.80;;;;;;4839360;22;20495;-80
2022/04/28 11:47:59;;;;;;;20.60;19.80;;;18.00;18.50;;;;;;4994775;28;20463;-80
2022/04/28 11:50:30;;;;;;;21.80;20.70;;;17.90;17.90;;;;;;4994310;28;20416;-80
2022/04/28 11:53:01;;;;;;;21.70;20.67;;;17.90;18.20;;;;;;4994671;28;20508;-80
2022/04/28 11:55:33;;;;;;;21.90;20.97;;;17.90;18.90;;;;;;4994562;28;20408;-80
2022/04/28 11:57:59;;;;;;;21.77;20.67;;;18.00;20.30;;;;;;4994769;28;20412;-80
2022/04/28 12:00:26;;;;;;;22.27;21.33;;;18.10;19.70;;;;;;5009371;28;20455;-79
2022/04/28 12:02:53;;;;;;;22.23;21.00;;;18.30;19.70;;;;;;5011360;28;20408;-79
2022/04/28 12:05:25;;;;;;;21.40;20.40;;;18.20;18.10;;;;;;4994948;28;20763;-80
2022/04/28 12:07:54;;;;;;;21.00;20.20;;;18.20;17.50;;;;;;4995025;28;20511;-80
2022/04/28 12:16:16;;;;;;;23.30;22.33;;;18.20;17.40;;;;;;5001084;28;20520;-78
2022/04/28 12:21:35;;;;;;;21.47;20.57;;;18.30;17.20;;;;;;5012238;28;20958;-78
2022/04/28 12:24:08;;;;;;;22.17;20.97;;;18.30;17.50;;;;;;4994132;28;20515;-79
2022/04/28 12:26:36;;;;;;;22.27;21.03;;;18.30;18.00;;;;;;4994232;28;20460;-80
2022/04/28 12:29:11;;;;;;;20.83;20.03;;;18.30;17.90;;;;;;4995742;28;20425;-79
2022/04/28 12:31:38;;;;;;;20.73;19.93;;;18.50;18.10;;;;;;5010624;28;20419;-79
2022/04/28 12:34:22;;;;;;;21.20;20.40;;;18.50;17.70;;;;;;5002685;28;20919;-79
2022/04/28 12:36:53;;;;;;;21.80;20.90;;;18.50;18.30;;;;;;4994015;28;20787;-79
2022/04/28 12:39:19;;;;;;;21.30;20.50;;;18.50;17.80;;;;;;4994269;28;20412;-79
2022/04/28 12:41:47;;;;;;;22.33;21.43;;;18.40;17.20;;;;;;4994179;28;20561;-79
2022/04/28 12:44:13;;;;;;;22.57;21.60;;;18.40;17.70;;;;;;4996464;28;20841;-79
2022/04/28 12:46:45;;;;;;;21.57;20.63;;;18.40;17.80;;;;;;5010262;28;20460;-79
2022/04/28 12:49:16;;;;;;;21.13;20.30;;;18.40;17.80;;;;;;5010451;28;20416;-79
2022/04/28 12:51:44;;;;;;;21.57;20.67;;;18.50;16.80;;;;;;5010636;28;20416;-79
2022/04/28 12:54:10;;;;;;;20.50;19.70;;;18.60;17.30;;;;;;5010269;28;20448;-79
2022/04/28 12:56:37;;;;;;;21.43;20.57;;;18.50;16.70;;;;;;5010747;28;20451;-79
2022/04/28 12:59:11;;;;;;;21.53;20.73;;;18.40;17.20;;;;;;5002615;28;20420;-79
2022/04/28 13:01:42;;;;;;;21.10;20.20;;;18.40;17.70;;;;;;4995907;28;20408;-79
2022/04/28 13:04:18;;;;;;;21.50;20.70;;;18.50;17.40;;;;;;4998300;28;20781;-79
2022/04/28 13:06:50;;;;;;;21.43;20.50;;;18.60;17.20;;;;;;5001264;28;20458;-79
2022/04/28 13:09:17;;;;;;;22.23;21.33;;;18.70;17.00;;;;;;4998545;28;20970;-80
2022/04/28 13:11:44;;;;;;;21.00;20.20;;;18.80;17.40;;;;;;4997971;28;20417;-80
2022/04/28 13:14:18;;;;;;;22.30;21.40;;;18.80;17.80;;;;;;5014731;28;20908;-83
2022/04/28 13:16:46;;;;;;;22.17;20.97;;;18.80;16.20;;;;;;4997125;28;20503;-83
2022/04/28 13:19:12;;;;;;;21.23;20.33;;;18.80;17.10;;;;;;4996569;28;20998;-83